Time;durP1;ratioP1;P1;durP2;ratioP2;P2;SDS_P1;SDS_P2;PMS_P1;PMS_P2;Temp;Humidity;BMP_temperature;BMP_pressure;BME280_temperature;BME280_humidity;BME280_pressure;Samples;Min_cycle;Max_cycle;Signal;HPM_P1;HPM_P2
2022/04/10 00:00:04;;;;;;;22.80;9.85;;;;;;;1.50;87.18;101797.56;5044668;28;20055;-71
2022/04/10 00:02:29;;;;;;;28.15;10.75;;;;;;;1.58;87.12;101788.72;5045499;28;20405;-71
2022/04/10 00:04:54;;;;;;;24.02;9.82;;;;;;;1.54;87.29;101788.16;5045675;28;20076;-71
2022/04/10 00:07:20;;;;;;;22.25;11.07;;;;;;;1.53;87.04;101791.88;5045027;28;20030;-71
2022/04/10 00:09:45;;;;;;;20.25;9.43;;;;;;;1.52;87.37;101783.88;5030533;28;20101;-70
2022/04/10 00:12:10;;;;;;;26.30;10.77;;;;;;;1.53;87.75;101788.31;5043865;28;20083;-71
2022/04/10 00:14:35;;;;;;;19.65;10.23;;;;;;;1.53;87.56;101794.59;5045194;28;20017;-70
2022/04/10 00:17:01;;;;;;;18.33;9.48;;;;;;;1.58;86.95;101793.28;5044990;28;20758;-71
2022/04/10 00:19:26;;;;;;;20.88;10.20;;;;;;;1.56;87.24;101788.00;5045562;28;20707;-71
2022/04/10 00:21:51;;;;;;;23.83;10.48;;;;;;;1.51;87.14;101791.16;5026306;28;20017;-71
2022/04/10 00:24:16;;;;;;;23.05;9.65;;;;;;;1.51;87.41;101799.28;5045391;28;20070;-70
2022/04/10 00:26:42;;;;;;;18.38;8.98;;;;;;;1.54;87.29;101790.03;5045279;28;20071;-71
2022/04/10 00:29:07;;;;;;;25.13;10.32;;;;;;;1.51;87.12;101796.56;5044223;28;20447;-71
2022/04/10 00:31:32;;;;;;;21.35;9.93;;;;;;;1.49;87.46;101795.88;5044860;28;20021;-70
2022/04/10 00:33:58;;;;;;;19.00;10.45;;;;;;;1.52;87.24;101792.00;5045791;28;20033;-70
2022/04/10 00:36:23;;;;;;;24.08;9.63;;;;;;;1.48;87.16;101796.88;5044731;28;20443;-71
2022/04/10 00:38:48;;;;;;;19.92;9.55;;;;;;;1.46;87.14;101790.75;5045408;28;20036;-71
2022/04/10 00:41:13;;;;;;;26.48;10.27;;;;;;;1.43;87.45;101785.66;5045307;28;20029;-70
2022/04/10 00:43:59;;;;;;;21.17;10.05;;;;;;;1.42;87.46;101786.66;5044647;28;20144;-70
2022/04/10 00:46:24;;;;;;;23.10;9.98;;;;;;;1.39;87.66;101786.09;5044803;28;20055;-70
2022/04/10 00:48:50;;;;;;;19.50;10.23;;;;;;;1.37;87.53;101788.06;5045249;28;20107;-70
2022/04/10 00:53:59;;;;;;;19.42;9.55;;;;;;;1.33;87.83;101782.13;5029825;28;20047;-70
2022/04/10 00:56:24;;;;;;;20.52;9.88;;;;;;;1.31;87.96;101784.09;5045175;28;20367;-70
2022/04/10 00:58:50;;;;;;;21.08;10.52;;;;;;;1.33;87.76;101784.81;5044006;28;20554;-70
2022/04/10 01:01:15;;;;;;;17.70;10.75;;;;;;;1.29;88.08;101778.84;5043848;28;20041;-71
2022/04/10 01:03:40;;;;;;;21.45;10.80;;;;;;;1.29;87.90;101786.13;5036136;28;20037;-70
2022/04/10 01:06:05;;;;;;;24.00;10.82;;;;;;;1.26;87.75;101784.53;5043917;28;20819;-71
2022/04/10 01:08:31;;;;;;;19.55;10.55;;;;;;;1.21;87.78;101780.56;5044336;28;20032;-70
2022/04/10 01:10:56;;;;;;;22.17;10.88;;;;;;;1.18;87.63;101786.31;5044176;28;20060;-71
2022/04/10 01:13:23;;;;;;;19.75;10.27;;;;;;;1.15;87.82;101786.56;5043058;28;20053;-70
2022/04/10 01:15:48;;;;;;;23.52;10.50;;;;;;;1.10;87.90;101776.19;5044291;28;20032;-71
2022/04/10 01:18:15;;;;;;;28.80;10.77;;;;;;;1.08;88.19;101780.91;5044622;28;20082;-70
2022/04/10 01:20:40;;;;;;;24.48;11.40;;;;;;;1.03;88.44;101784.03;5044252;28;20029;-70
2022/04/10 01:23:09;;;;;;;24.23;10.45;;;;;;;1.03;88.11;101789.47;5042659;28;20324;-71
2022/04/10 01:25:34;;;;;;;18.92;10.45;;;;;;;1.00;88.50;101784.31;5025879;28;20117;-70
2022/04/10 01:28:01;;;;;;;20.02;10.90;;;;;;;0.98;88.52;101785.47;5043393;28;20099;-70
2022/04/10 01:30:28;;;;;;;25.17;11.38;;;;;;;0.94;88.69;101784.06;5042919;28;20030;-70
2022/04/10 01:32:53;;;;;;;22.15;12.15;;;;;;;0.96;89.28;101792.88;5044514;28;20111;-70
2022/04/10 01:35:24;;;;;;;22.15;11.73;;;;;;;0.96;88.64;101801.88;5026699;28;20647;-71
2022/04/10 01:37:51;;;;;;;22.23;11.05;;;;;;;0.90;88.65;101799.72;5043973;28;20116;-71
2022/04/10 01:40:16;;;;;;;22.45;11.80;;;;;;;0.90;88.86;101791.59;5028598;28;20115;-71
2022/04/10 01:42:42;;;;;;;25.83;11.85;;;;;;;0.89;88.57;101791.75;5044373;28;20109;-70
2022/04/10 01:45:07;;;;;;;23.35;12.30;;;;;;;0.87;89.02;101794.63;5043314;28;20024;-70
2022/04/10 01:47:33;;;;;;;20.75;11.80;;;;;;;0.84;89.01;101797.59;5044239;28;20032;-70
2022/04/10 01:49:58;;;;;;;23.23;12.02;;;;;;;0.84;89.33;101808.41;5043402;28;20056;-68
2022/04/10 01:52:23;;;;;;;23.05;11.73;;;;;;;0.82;89.13;101801.47;5043396;28;20029;-70
2022/04/10 01:54:48;;;;;;;21.95;11.38;;;;;;;0.82;89.71;101807.72;5043870;28;20017;-70
2022/04/10 01:57:14;;;;;;;23.08;10.80;;;;;;;0.81;89.40;101807.84;5043440;28;20033;-71
2022/04/10 01:59:39;;;;;;;23.75;11.27;;;;;;;0.77;89.23;101804.59;5042287;28;20504;-70
2022/04/10 02:02:05;;;;;;;19.83;10.60;;;;;;;0.72;89.33;101810.44;5043421;28;20029;-70
2022/04/10 02:04:30;;;;;;;19.27;10.90;;;;;;;0.71;89.23;101805.13;5026780;28;20029;-70
2022/04/10 02:06:55;;;;;;;22.70;10.88;;;;;;;0.68;89.49;101810.84;5041869;28;20045;-70
2022/04/10 02:09:20;;;;;;;21.45;10.50;;;;;;;0.69;89.66;101816.09;5043227;28;20091;-70
2022/04/10 02:11:46;;;;;;;21.40;10.88;;;;;;;0.67;89.48;101807.28;5043722;28;20033;-70
2022/04/10 02:14:12;;;;;;;20.45;10.05;;;;;;;0.68;89.85;101811.69;5041906;28;21738;-70
2022/04/10 02:16:37;;;;;;;21.92;11.00;;;;;;;0.71;89.93;101816.84;5043509;28;20029;-71
2022/04/10 02:19:02;;;;;;;28.55;11.43;;;;;;;0.77;90.10;101810.00;5043430;28;20112;-70
2022/04/10 02:21:28;;;;;;;20.95;10.90;;;;;;;0.77;90.06;101807.28;5043484;28;20029;-71
2022/04/10 02:23:53;;;;;;;22.45;10.77;;;;;;;0.77;90.17;101807.28;5025414;28;20039;-70
2022/04/10 02:26:18;;;;;;;19.17;10.75;;;;;;;0.77;90.13;101818.09;5043760;28;20033;-71
2022/04/10 02:28:43;;;;;;;24.60;11.27;;;;;;;0.78;90.20;101806.28;5005243;28;20021;-70
2022/04/10 02:31:09;;;;;;;18.13;10.38;;;;;;;0.79;90.21;101808.00;5030945;28;20017;-71
2022/04/10 02:33:34;;;;;;;22.40;10.77;;;;;;;0.77;90.09;101810.00;5042956;28;20396;-70
2022/04/10 02:36:00;;;;;;;26.08;10.93;;;;;;;0.78;90.25;101814.41;5041715;28;20094;-71
2022/04/10 02:38:25;;;;;;;20.50;10.88;;;;;;;0.83;90.76;101819.38;5043547;28;20143;-70
2022/04/10 02:40:51;;;;;;;17.48;10.40;;;;;;;0.82;90.78;101815.81;5041622;28;20036;-71
2022/04/10 02:43:16;;;;;;;18.30;10.57;;;;;;;0.80;90.37;101820.50;5041190;28;20037;-70
2022/04/10 02:45:42;;;;;;;24.90;12.02;;;;;;;0.80;90.39;101815.09;5042970;28;20029;-71
2022/04/10 02:48:08;;;;;;;20.58;10.52;;;;;;;0.76;90.27;101819.97;5042349;28;20033;-71
2022/04/10 02:50:33;;;;;;;22.05;11.23;;;;;;;0.75;90.72;101818.22;5042440;28;20082;-71
2022/04/10 02:52:58;;;;;;;18.70;11.00;;;;;;;0.73;90.52;101831.06;5024396;28;20033;-70
2022/04/10 02:55:24;;;;;;;21.27;11.13;;;;;;;0.69;90.38;101826.06;5043332;28;20107;-70
2022/04/10 02:57:49;;;;;;;24.33;11.05;;;;;;;0.65;90.45;101827.34;5043133;28;20087;-70
2022/04/10 03:00:15;;;;;;;17.10;10.88;;;;;;;0.63;90.43;101832.06;5041204;28;20070;-70
2022/04/10 03:02:40;;;;;;;18.92;10.02;;;;;;;0.60;90.58;101832.31;5042154;28;20040;-70
2022/04/10 03:05:10;;;;;;;21.02;11.90;;;;;;;0.55;90.42;101831.88;5042782;28;20075;-70
2022/04/10 03:07:35;;;;;;;22.83;11.32;;;;;;;0.52;90.55;101827.63;5042565;28;20773;-70
2022/04/10 03:10:01;;;;;;;22.52;11.43;;;;;;;0.50;90.80;101833.16;5042130;28;20035;-70
2022/04/10 03:12:26;;;;;;;20.27;11.38;;;;;;;0.47;90.77;101836.16;5043149;28;20027;-70
2022/04/10 03:14:51;;;;;;;21.73;11.80;;;;;;;0.45;91.01;101837.28;5041597;28;20088;-70
2022/04/10 03:17:17;;;;;;;29.23;12.80;;;;;;;0.42;90.64;101838.44;5042232;28;20041;-70
2022/04/10 03:19:42;;;;;;;22.45;13.38;;;;;;;0.37;90.92;101838.00;5043225;28;20449;-71
2022/04/10 03:22:07;;;;;;;21.80;12.55;;;;;;;0.37;91.15;101829.03;5041729;28;20037;-71
2022/04/10 03:24:32;;;;;;;21.80;12.60;;;;;;;0.34;91.07;101830.16;5042546;28;20090;-70
2022/04/10 03:26:58;;;;;;;25.13;12.82;;;;;;;0.31;91.10;101832.31;5042218;28;20029;-70
2022/04/10 03:29:23;;;;;;;24.83;13.57;;;;;;;0.24;90.94;101842.78;5042291;28;20024;-70
2022/04/10 03:31:48;;;;;;;22.30;12.93;;;;;;;0.20;91.15;101838.66;5042146;28;20029;-70
2022/04/10 03:34:13;;;;;;;24.40;12.30;;;;;;;0.14;91.46;101848.19;5024081;28;20550;-70
2022/04/10 03:36:39;;;;;;;26.27;14.25;;;;;;;0.11;91.88;101839.50;5042579;28;20218;-70
2022/04/10 03:39:04;;;;;;;30.00;16.05;;;;;;;0.10;92.08;101846.78;5042006;28;20025;-70
2022/04/10 03:41:29;;;;;;;29.38;15.18;;;;;;;0.12;92.21;101846.63;5024790;28;20636;-71
2022/04/10 03:43:55;;;;;;;28.92;15.77;;;;;;;0.14;92.29;101847.31;5042026;28;20040;-71
2022/04/10 03:46:20;;;;;;;27.27;15.93;;;;;;;0.17;92.53;101852.47;5042412;28;20021;-71
2022/04/10 03:48:45;;;;;;;23.92;14.73;;;;;;;0.14;92.08;101844.63;5042512;28;20040;-71
2022/04/10 03:51:10;;;;;;;24.25;16.05;;;;;;;0.12;92.25;101843.91;5041487;28;20045;-70
2022/04/10 03:53:36;;;;;;;25.98;15.00;;;;;;;0.04;91.77;101850.00;5027404;28;20495;-70
2022/04/10 03:56:01;;;;;;;23.85;15.70;;;;;;;0.05;92.60;101865.22;5028006;28;20033;-70
2022/04/10 03:58:26;;;;;;;23.15;15.55;;;;;;;0.03;92.51;101861.78;5045942;28;20025;-70
2022/04/10 04:00:52;;;;;;;24.30;15.52;;;;;;;-0.01;92.22;101855.81;5045248;28;20381;-71
2022/04/10 04:03:17;;;;;;;27.23;16.20;;;;;;;-0.04;91.73;101863.34;5044646;28;20040;-70
2022/04/10 04:05:43;;;;;;;27.45;16.70;;;;;;;-0.07;91.99;101872.56;5045453;28;20048;-70
2022/04/10 04:08:08;;;;;;;23.95;16.23;;;;;;;-0.13;92.06;101862.31;5045937;28;20430;-71
2022/04/10 04:10:34;;;;;;;28.45;17.40;;;;;;;-0.13;92.26;101873.13;5045696;28;20025;-71
2022/04/10 04:12:59;;;;;;;28.67;16.73;;;;;;;-0.14;92.53;101879.50;5043984;28;20036;-71
2022/04/10 04:15:25;;;;;;;26.95;16.77;;;;;;;-0.11;92.45;101872.97;5046195;28;20029;-71
2022/04/10 04:17:50;;;;;;;25.48;16.33;;;;;;;-0.12;92.84;101876.66;5045808;28;20110;-71
2022/04/10 04:20:15;;;;;;;25.40;16.80;;;;;;;-0.12;92.70;101877.50;5045015;28;20027;-71
2022/04/10 04:22:41;;;;;;;29.88;17.60;;;;;;;-0.09;93.11;101879.09;5045590;28;20040;-71
2022/04/10 04:25:09;;;;;;;26.40;17.38;;;;;;;-0.08;92.79;101878.09;5044935;28;20029;-71
2022/04/10 04:27:34;;;;;;;28.92;17.42;;;;;;;-0.08;92.70;101876.25;5045454;28;20021;-71
2022/04/10 04:30:01;;;;;;;30.77;17.48;;;;;;;-0.04;93.13;101879.56;5044617;28;20035;-71
2022/04/10 04:32:26;;;;;;;31.70;17.98;;;;;;;-0.03;93.08;101882.09;5044553;28;20040;-71
2022/04/10 04:34:51;;;;;;;31.95;18.17;;;;;;;0.01;93.26;101887.25;5045443;28;20021;-71
2022/04/10 04:37:17;;;;;;;28.60;17.90;;;;;;;0.01;93.38;101884.53;5042363;28;20057;-71
2022/04/10 04:39:42;;;;;;;28.85;18.75;;;;;;;-0.02;93.19;101874.84;5045747;28;20040;-71
2022/04/10 04:42:07;;;;;;;26.38;18.17;;;;;;;-0.08;92.84;101884.38;5044664;28;20360;-71
2022/04/10 04:44:33;;;;;;;26.60;17.55;;;;;;;-0.15;92.87;101885.91;5044109;28;20033;-71
2022/04/10 04:46:59;;;;;;;27.30;17.92;;;;;;;-0.17;93.25;101890.56;5044774;28;20021;-70
2022/04/10 04:49:25;;;;;;;30.38;18.02;;;;;;;-0.21;93.43;101894.53;5045649;28;20561;-71
2022/04/10 04:51:50;;;;;;;29.02;17.98;;;;;;;-0.19;93.54;101897.09;5044446;28;20029;-71
2022/04/10 04:54:15;;;;;;;30.20;19.05;;;;;;;-0.21;93.48;101894.53;5044849;28;20071;-71
2022/04/10 04:56:41;;;;;;;26.13;17.83;;;;;;;-0.22;93.68;101890.13;5041979;28;20032;-71
2022/04/10 04:59:06;;;;;;;29.90;18.33;;;;;;;-0.20;93.78;101889.97;5044236;28;20029;-71
2022/04/10 05:01:32;;;;;;;26.17;18.25;;;;;;;-0.19;94.01;101900.66;5044320;28;20049;-71
2022/04/10 05:03:57;;;;;;;26.95;17.35;;;;;;;-0.21;93.97;101894.53;5044545;28;20072;-71
2022/04/10 05:06:22;;;;;;;27.15;18.60;;;;;;;-0.20;93.95;101889.97;5042925;28;20048;-71
2022/04/10 05:08:48;;;;;;;25.00;17.83;;;;;;;-0.20;94.18;101904.34;5044443;28;20683;-71
2022/04/10 05:11:14;;;;;;;31.58;17.65;;;;;;;-0.19;93.97;101908.75;5044198;28;20036;-71
2022/04/10 05:13:40;;;;;;;30.50;17.90;;;;;;;-0.17;93.85;101903.22;5042740;28;20021;-71
2022/04/10 05:16:05;;;;;;;24.55;17.83;;;;;;;-0.13;93.78;101901.97;5043600;28;20108;-71
2022/04/10 05:18:31;;;;;;;27.35;18.95;;;;;;;-0.08;94.12;101905.97;5045270;28;20108;-71
2022/04/10 05:20:56;;;;;;;32.40;18.30;;;;;;;-0.05;93.89;101899.41;5044440;28;20029;-71
2022/04/10 05:23:21;;;;;;;34.67;19.13;;;;;;;-0.02;93.81;101909.97;5044079;28;20456;-71
2022/04/10 05:25:48;;;;;;;28.40;18.30;;;;;;;0.04;93.92;101909.41;5026854;28;20099;-71
2022/04/10 05:28:14;;;;;;;27.10;19.02;;;;;;;0.14;94.25;101915.72;5042610;28;20071;-71
2022/04/10 05:30:40;;;;;;;30.02;20.23;;;;;;;0.22;94.23;101912.34;5044277;28;20106;-71
2022/04/10 05:33:05;;;;;;;28.73;19.25;;;;;;;0.29;94.39;101923.44;5043480;28;20470;-71
2022/04/10 05:35:30;;;;;;;29.48;18.48;;;;;;;0.33;93.89;101922.19;5044201;28;20061;-71
2022/04/10 05:37:56;;;;;;;29.15;19.77;;;;;;;0.39;93.73;101930.56;5044107;28;20502;-71
2022/04/10 05:40:22;;;;;;;28.27;19.27;;;;;;;0.41;94.02;101920.50;5043800;28;20078;-71
2022/04/10 05:42:47;;;;;;;27.80;19.60;;;;;;;0.48;93.93;101923.50;5043709;28;20037;-71
2022/04/10 05:45:13;;;;;;;27.35;17.92;;;;;;;0.52;93.84;101925.78;5043694;28;20527;-71
2022/04/10 05:47:41;;;;;;;25.33;18.08;;;;;;;0.61;94.31;101929.53;5044360;28;20483;-71
2022/04/10 05:50:08;;;;;;;36.35;20.42;;;;;;;0.67;93.86;101936.22;5040485;28;20395;-71
2022/04/10 05:52:45;;;;;;;30.92;20.17;;;;;;;0.78;93.65;101936.94;5044453;28;20389;-72
2022/04/10 05:55:12;;;;;;;27.08;18.58;;;;;;;0.89;93.84;101946.75;5043161;28;20969;-71
2022/04/10 05:57:38;;;;;;;28.08;17.90;;;;;;;1.06;93.98;101945.19;5042925;28;20025;-71
2022/04/10 06:00:06;;;;;;;29.92;17.88;;;;;;;1.26;93.79;101944.19;5043309;28;20052;-71
2022/04/10 06:02:32;;;;;;;27.88;17.63;;;;;;;1.41;93.75;101950.03;5043635;28;20024;-70
2022/04/10 06:04:57;;;;;;;25.30;16.08;;;;;;;1.47;93.23;101949.47;5044513;28;20029;-71
2022/04/10 06:07:22;;;;;;;27.73;17.02;;;;;;;1.52;93.03;101952.63;5043111;28;20460;-71
2022/04/10 06:09:48;;;;;;;29.27;16.10;;;;;;;1.59;92.95;101954.72;5042767;28;20044;-71
2022/04/10 06:12:13;;;;;;;28.75;14.95;;;;;;;1.67;92.84;101954.84;5044512;28;20029;-71
2022/04/10 06:14:38;;;;;;;25.67;14.80;;;;;;;1.76;92.68;101962.09;5042452;28;20017;-72
2022/04/10 06:17:04;;;;;;;28.52;15.70;;;;;;;1.88;92.48;101968.22;5043228;28;20232;-71
2022/04/10 06:19:29;;;;;;;24.80;14.70;;;;;;;1.99;92.52;101968.03;5024317;28;20036;-71
2022/04/10 06:21:54;;;;;;;30.65;15.05;;;;;;;2.15;92.36;101965.56;5041690;28;20108;-71
2022/04/10 06:24:21;;;;;;;24.98;14.80;;;;;;;2.38;92.01;101974.16;5042487;28;20383;-72
2022/04/10 06:26:49;;;;;;;27.65;15.38;;;;;;;2.65;89.87;101980.63;5032902;28;20486;-72
2022/04/10 06:29:15;;;;;;;28.57;14.33;;;;;;;2.80;89.22;101979.94;5038572;28;20140;-72
2022/04/10 06:31:40;;;;;;;26.42;14.73;;;;;;;2.91;89.35;101978.88;5038752;28;20374;-71
2022/04/10 06:34:05;;;;;;;28.90;14.35;;;;;;;3.12;89.16;101984.88;5043669;28;20025;-72
2022/04/10 06:36:31;;;;;;;25.33;15.10;;;;;;;3.34;88.06;101979.97;5041752;28;20494;-73
2022/04/10 06:38:56;;;;;;;26.85;14.98;;;;;;;3.65;87.98;101975.00;5023744;28;20449;-72
2022/04/10 06:41:21;;;;;;;26.58;13.40;;;;;;;4.23;85.43;101987.09;5042164;28;20021;-71
2022/04/10 06:43:46;;;;;;;20.05;12.25;;;;;;;4.81;82.10;101980.88;5028497;28;20061;-72
2022/04/10 06:46:12;;;;;;;27.77;12.75;;;;;;;5.24;80.60;101988.00;5022962;28;20057;-73
2022/04/10 06:48:38;;;;;;;29.40;13.40;;;;;;;5.50;78.29;101982.41;5030140;28;20090;-72
2022/04/10 06:51:04;;;;;;;26.40;12.45;;;;;;;5.49;77.23;101983.41;5025547;28;20502;-72
2022/04/10 06:53:30;;;;;;;23.83;13.25;;;;;;;5.40;78.13;101987.16;5041259;28;20025;-72
2022/04/10 06:55:55;;;;;;;27.25;13.07;;;;;;;5.56;77.48;101989.88;5042668;28;20029;-72
2022/04/10 06:58:22;;;;;;;23.90;11.38;;;;;;;5.90;77.10;101994.31;5040867;28;20056;-71
2022/04/10 07:00:48;;;;;;;29.17;13.13;;;;;;;6.24;75.96;101985.94;5041720;28;20064;-76
2022/04/10 07:03:13;;;;;;;23.80;11.52;;;;;;;6.62;74.04;101994.34;5038698;28;20291;-73
2022/04/10 07:05:39;;;;;;;17.15;10.30;;;;;;;7.00;72.45;101990.75;5042433;28;20029;-74
2022/04/10 07:08:05;;;;;;;22.85;10.57;;;;;;;7.05;72.06;102001.16;5042708;28;20674;-73
2022/04/10 07:10:30;;;;;;;19.08;9.85;;;;;;;7.15;71.28;101990.84;5023430;28;20033;-73
2022/04/10 07:12:55;;;;;;;19.35;9.90;;;;;;;7.37;70.79;101994.63;5041019;28;20025;-73
2022/04/10 07:15:21;;;;;;;21.00;9.70;;;;;;;7.76;69.51;101994.47;5041502;28;20130;-72
2022/04/10 07:17:46;;;;;;;16.38;8.25;;;;;;;8.24;66.86;101997.78;5024896;28;20029;-77
2022/04/10 07:20:11;;;;;;;18.98;7.93;;;;;;;8.81;66.71;102005.34;5037780;28;20482;-74
2022/04/10 07:25:21;;;;;;;16.73;7.10;;;;;;;10.04;62.33;101992.53;5039208;28;20094;-73
2022/04/10 07:27:46;;;;;;;13.73;6.22;;;;;;;10.68;59.57;101989.56;5045277;28;20024;-74
2022/04/10 07:30:12;;;;;;;13.60;5.78;;;;;;;11.83;57.86;101998.81;5042345;28;20029;-73
2022/04/10 07:32:39;;;;;;;12.82;5.63;;;;;;;12.35;54.70;102005.38;5026706;28;20437;-73
2022/04/10 07:35:04;;;;;;;10.65;4.88;;;;;;;13.19;52.15;102002.56;5043639;28;20060;-73
2022/04/10 07:37:30;;;;;;;10.13;4.70;;;;;;;13.80;51.30;102009.44;5043540;28;20271;-71
2022/04/10 07:39:55;;;;;;;12.35;4.50;;;;;;;13.97;49.02;102021.59;5043026;28;20044;-71
2022/04/10 07:42:20;;;;;;;9.73;4.03;;;;;;;14.11;48.31;102025.09;5043046;28;20013;-71
2022/04/10 07:44:45;;;;;;;11.50;5.20;;;;;;;14.18;48.85;102023.13;5044310;28;20514;-71
2022/04/10 07:47:26;;;;;;;8.20;4.07;;;;;;;14.10;47.88;102030.88;5042649;28;20055;-72
2022/04/10 07:49:55;;;;;;;9.63;4.10;;;;;;;13.96;46.49;102033.72;5042154;28;20441;-71
2022/04/10 07:52:21;;;;;;;9.93;3.72;;;;;;;13.65;47.04;102028.22;5042690;28;20107;-71
2022/04/10 07:54:47;;;;;;;12.55;3.88;;;;;;;13.71;48.28;102027.31;5043573;28;20025;-71
2022/04/10 07:57:13;;;;;;;12.98;4.00;;;;;;;13.87;48.32;102040.59;5043353;28;20087;-70
2022/04/10 07:59:38;;;;;;;10.35;4.00;;;;;;;13.82;48.15;102040.41;5042485;28;20272;-71
2022/04/10 08:02:03;;;;;;;8.45;3.38;;;;;;;12.70;48.74;102061.06;5043568;28;20032;-71
2022/04/10 08:04:29;;;;;;;10.48;3.92;;;;;;;11.44;52.28;102059.03;5043559;28;20083;-71
2022/04/10 08:06:54;;;;;;;8.52;4.22;;;;;;;10.41;55.14;102070.13;5042800;28;20033;-71
2022/04/10 08:09:20;;;;;;;9.55;3.97;;;;;;;9.82;58.18;102066.63;5043581;28;20411;-71
2022/04/10 08:11:45;;;;;;;13.77;4.13;;;;;;;9.06;58.66;102084.50;5043643;28;20622;-71
2022/04/10 08:14:10;;;;;;;10.05;3.75;;;;;;;8.69;62.16;102090.94;5041984;28;20029;-71
2022/04/10 08:16:35;;;;;;;12.23;3.83;;;;;;;8.26;62.51;102091.50;5037732;28;20033;-71
2022/04/10 08:19:01;;;;;;;10.95;4.07;;;;;;;7.60;64.87;102093.03;5043479;28;20541;-71
2022/04/10 08:21:26;;;;;;;12.68;4.03;;;;;;;7.39;66.79;102099.13;5042933;28;20046;-70
2022/04/10 08:23:51;;;;;;;12.98;4.60;;;;;;;7.40;67.37;102105.44;5043278;28;20081;-71
2022/04/10 08:26:17;;;;;;;10.95;3.35;;;;;;;7.90;65.80;102101.38;5043011;28;20380;-71
2022/04/10 08:28:42;;;;;;;11.45;3.28;;;;;;;9.00;63.09;102096.22;5042001;28;20078;-71
2022/04/10 08:31:07;;;;;;;10.80;3.75;;;;;;;10.40;60.00;102080.28;5043105;28;20120;-72
2022/04/10 08:33:32;;;;;;;8.40;3.63;;;;;;;11.15;54.71;102086.84;5043509;28;20468;-71
2022/04/10 08:35:58;;;;;;;10.60;3.10;;;;;;;12.03;53.32;102089.69;5042341;28;20029;-71
2022/04/10 08:38:23;;;;;;;10.25;3.50;;;;;;;13.37;50.02;102089.28;5042729;28;20040;-71
2022/04/10 08:40:50;;;;;;;10.52;3.15;;;;;;;14.09;44.86;102081.63;5043621;28;20031;-71
2022/04/10 08:43:18;;;;;;;10.48;2.90;;;;;;;14.45;45.59;102090.09;5041121;28;20036;-71
2022/04/10 08:45:44;;;;;;;11.57;2.88;;;;;;;14.52;44.43;102082.59;5043039;28;20458;-71
2022/04/10 08:48:10;;;;;;;11.55;2.63;;;;;;;14.79;43.33;102091.47;5043501;28;20044;-72
2022/04/10 08:50:36;;;;;;;9.48;3.03;;;;;;;15.56;41.53;102089.09;5041764;28;20464;-72
2022/04/10 08:53:02;;;;;;;6.70;2.65;;;;;;;16.34;39.67;102090.91;5043619;28;20021;-71
2022/04/10 08:55:28;;;;;;;8.77;2.72;;;;;;;16.25;40.56;102085.94;5044036;28;20028;-71
2022/04/10 08:57:54;;;;;;;8.38;2.75;;;;;;;16.31;40.25;102094.16;5043329;28;20017;-71
2022/04/10 09:00:20;;;;;;;9.05;2.72;;;;;;;17.48;37.79;102090.47;5042866;28;20052;-70
2022/04/10 09:02:50;;;;;;;9.77;2.78;;;;;;;18.34;36.38;102091.25;5043684;28;20055;-71
2022/04/10 09:05:17;;;;;;;8.73;2.60;;;;;;;19.02;34.40;102092.09;5024744;28;20103;-70
2022/04/10 09:08:05;;;;;;;9.00;3.00;;;;;;;19.12;36.89;102089.44;5043501;28;20028;-70
2022/04/10 09:10:51;;;;;;;9.00;2.50;;;;;;;18.85;33.76;102091.25;5043435;28;20025;-70
2022/04/10 09:13:23;;;;;;;10.07;2.20;;;;;;;19.75;33.74;102086.31;5042170;28;20490;-68
2022/04/10 09:15:48;;;;;;;7.28;2.10;;;;;;;19.75;31.57;102094.69;5043346;28;20028;-70
2022/04/10 09:18:13;;;;;;;10.63;2.40;;;;;;;19.00;33.21;102097.03;5042677;28;20055;-70
2022/04/10 09:20:39;;;;;;;8.37;2.57;;;;;;;20.04;32.38;102096.13;5042929;28;20021;-70
2022/04/10 09:23:08;;;;;;;7.70;2.40;;;;;;;20.47;31.80;102092.31;5042947;28;20835;-69
2022/04/10 09:25:42;;;;;;;9.43;2.72;;;;;;;20.31;33.44;102098.88;5042689;28;20279;-69
2022/04/10 09:28:08;;;;;;;9.82;2.20;;;;;;;19.19;31.52;102101.22;5042187;28;20032;-70
2022/04/10 09:30:35;;;;;;;5.22;1.88;;;;;;;17.45;34.24;102092.91;5043151;28;20021;-70
2022/04/10 09:33:00;;;;;;;8.90;2.17;;;;;;;17.29;34.94;102097.31;5042704;28;20182;-71
2022/04/10 09:35:26;;;;;;;7.50;2.10;;;;;;;16.31;36.80;102096.06;5042935;28;20160;-70
2022/04/10 09:37:56;;;;;;;7.15;2.10;;;;;;;14.12;39.42;102100.53;5043321;28;20417;-71
2022/04/10 09:40:40;;;;;;;8.75;2.30;;;;;;;13.60;44.14;102100.66;5025311;28;20035;-70
2022/04/10 09:43:10;;;;;;;8.02;2.80;;;;;;;14.22;40.75;102103.66;5041731;28;20451;-70
2022/04/10 09:45:40;;;;;;;6.63;2.17;;;;;;;15.89;37.61;102095.25;5004941;28;20029;-70
2022/04/10 09:48:21;;;;;;;9.80;2.20;;;;;;;17.87;36.09;102090.72;5022579;28;20140;-70
2022/04/10 09:50:52;;;;;;;6.22;1.80;;;;;;;18.74;33.26;102092.22;5020360;28;20228;-70
2022/04/10 09:53:17;;;;;;;5.40;2.10;;;;;;;19.59;31.92;102085.28;5022590;28;20018;-70
2022/04/10 09:55:43;;;;;;;7.68;1.92;;;;;;;20.67;29.64;102076.84;5038343;28;20025;-70
2022/04/10 09:58:11;;;;;;;6.38;1.80;;;;;;;21.10;28.02;102089.69;5041685;28;20024;-70
2022/04/10 10:00:43;;;;;;;6.43;1.67;;;;;;;21.81;27.48;102088.31;5042016;28;20120;-69
2022/04/10 10:03:09;;;;;;;4.63;1.35;;;;;;;21.53;24.70;102090.47;5042247;28;20043;-70
2022/04/10 10:05:35;;;;;;;5.75;1.40;;;;;;;21.74;25.79;102095.00;5041992;28;20095;-69
2022/04/10 10:08:01;;;;;;;6.35;1.52;;;;;;;22.25;25.77;102086.75;5042010;28;20114;-69
2022/04/10 10:10:37;;;;;;;7.07;1.35;;;;;;;22.49;28.28;102097.34;5042390;28;20056;-69
2022/04/10 10:13:05;;;;;;;4.07;1.38;;;;;;;21.84;25.89;102094.19;5041527;28;20392;-70
2022/04/10 10:15:32;;;;;;;4.95;1.50;;;;;;;21.23;26.27;102094.78;5041862;28;20373;-70
2022/04/10 10:17:57;;;;;;;7.93;1.40;;;;;;;21.53;27.40;102082.06;5042517;28;20088;-70
2022/04/10 10:20:23;;;;;;;5.68;1.60;;;;;;;22.74;24.29;102072.13;5041496;28;20028;-70
2022/04/10 10:22:48;;;;;;;5.85;1.65;;;;;;;23.49;24.45;102079.75;5042311;28;20021;-70
2022/04/10 10:25:24;;;;;;;5.82;1.92;;;;;;;22.91;24.94;102074.66;5041476;28;20098;-70
2022/04/10 10:28:08;;;;;;;5.68;1.50;;;;;;;23.01;26.94;102076.56;5023231;28;20510;-70
2022/04/10 10:30:55;;;;;;;8.10;1.80;;;;;;;22.61;26.32;102067.13;5041402;28;20040;-69
2022/04/10 10:33:23;;;;;;;4.82;1.42;;;;;;;22.83;24.82;102069.59;5041959;28;20039;-70
2022/04/10 10:35:54;;;;;;;5.93;1.58;;;;;;;23.14;23.98;102073.19;5041461;28;20048;-69
2022/04/10 10:38:24;;;;;;;4.22;1.40;;;;;;;22.51;25.01;102065.19;5041777;28;20024;-70
2022/04/10 10:40:50;;;;;;;7.60;1.90;;;;;;;21.20;27.43;102067.38;5041887;28;20025;-71
2022/04/10 10:43:22;;;;;;;9.77;2.03;;;;;;;22.51;25.29;102067.97;5039046;28;20112;-70
2022/04/10 10:45:50;;;;;;;6.93;1.75;;;;;;;23.37;24.15;102065.22;5041523;28;20475;-70
2022/04/10 10:48:30;;;;;;;6.95;1.80;;;;;;;23.68;25.94;102072.41;5041318;28;20021;-70
2022/04/10 10:51:09;;;;;;;6.30;1.30;;;;;;;23.27;22.72;102083.78;5041514;28;20088;-70
2022/04/10 10:53:48;;;;;;;6.45;1.50;;;;;;;20.66;26.25;102078.81;5041697;28;20501;-71
2022/04/10 10:56:14;;;;;;;5.03;1.50;;;;;;;20.10;27.72;102074.69;5041553;28;20022;-72
2022/04/10 10:58:40;;;;;;;6.05;1.65;;;;;;;21.38;25.36;102079.22;5041360;28;20024;-71
2022/04/10 11:01:07;;;;;;;6.82;1.50;;;;;;;22.34;25.36;102064.59;5042099;28;20095;-72
2022/04/10 11:03:32;;;;;;;5.18;1.98;;;;;;;22.56;25.50;102066.25;5045733;28;20079;-70
2022/04/10 11:06:14;;;;;;;6.75;1.77;;;;;;;23.31;26.07;102068.03;5045850;28;20029;-71
2022/04/10 11:08:40;;;;;;;5.60;1.75;;;;;;;23.67;21.68;102064.25;5045385;28;20429;-71
2022/04/10 11:11:07;;;;;;;5.75;1.67;;;;;;;23.98;20.78;102062.94;5045478;28;20166;-70
2022/04/10 11:13:46;;;;;;;7.20;1.73;;;;;;;24.52;23.02;102059.13;5045189;28;20239;-71
2022/04/10 11:16:13;;;;;;;7.97;2.00;;;;;;;24.33;22.61;102063.78;5045179;28;20780;-70
2022/04/10 11:19:02;;;;;;;6.63;1.80;;;;;;;23.77;24.25;102065.06;5045664;28;20070;-71
2022/04/10 11:21:29;;;;;;;7.72;2.17;;;;;;;23.04;24.03;102062.00;5030086;28;20531;-71